Time;durP1;ratioP1;P1;durP2;ratioP2;P2;SDS_P1;SDS_P2;PMS_P1;PMS_P2;Temp;Humidity;BMP_temperature;BMP_pressure;BME280_temperature;BME280_humidity;BME280_pressure;Samples;Min_cycle;Max_cycle;Signal;HPM_P1;HPM_P2
2022/06/22 00:00:19;;;;;;;8.73;5.70;;;;;;;22.07;66.10;98894.25;340054;28;2278;-71
2022/06/22 00:00:38;;;;;;;10.18;5.68;;;;;;;22.10;66.11;98899.25;340551;29;1209;-72
2022/06/22 00:01:06;;;;;;;8.80;5.40;;;;;;;22.12;65.76;98892.03;339912;29;1108;-72
2022/06/22 00:01:26;;;;;;;8.27;5.00;;;;;;;22.17;65.47;98884.47;340346;28;2196;-72
2022/06/22 00:01:41;;;;;;;7.18;4.80;;;;;;;22.19;65.25;98885.16;340397;29;1789;-71
2022/06/22 00:02:02;;;;;;;8.43;4.97;;;;;;;22.20;65.06;98880.72;341352;28;1235;-71
2022/06/22 00:02:20;;;;;;;9.13;5.00;;;;;;;22.20;64.99;98883.38;339752;29;1177;-71
2022/06/22 00:02:37;;;;;;;7.03;4.60;;;;;;;22.21;64.97;98885.84;340549;28;1847;-71
2022/06/22 00:02:53;;;;;;;6.60;4.75;;;;;;;22.19;64.77;98884.34;339951;29;1015;-71
2022/06/22 00:03:08;;;;;;;11.05;5.35;;;;;;;22.18;64.94;98886.16;341287;28;1097;-71
2022/06/22 00:03:21;;;;;;;13.02;5.38;;;;;;;22.16;65.36;98877.53;340295;28;2126;-71
2022/06/22 00:03:34;;;;;;;11.32;5.35;;;;;;;22.14;65.29;98884.78;340666;28;1893;-71
2022/06/22 00:03:50;;;;;;;10.15;5.43;;;;;;;22.09;65.96;98879.06;340884;28;1395;-71
2022/06/22 00:04:04;;;;;;;8.32;5.70;;;;;;;22.06;66.16;98882.00;341217;28;1132;-71
2022/06/22 00:04:22;;;;;;;10.25;6.05;;;;;;;22.00;65.83;98883.41;341242;28;1100;-72
2022/06/22 00:04:43;;;;;;;11.48;6.25;;;;;;;22.01;66.27;98878.94;340651;28;1473;-71
2022/06/22 00:05:27;;;;;;;8.90;5.40;;;;;;;22.02;65.97;98880.63;339910;28;1747;-71
2022/06/22 00:05:52;;;;;;;6.38;4.82;;;;;;;22.03;66.14;98876.97;339337;29;1314;-71
2022/06/22 00:06:04;;;;;;;5.60;5.00;;;;;;;22.03;65.87;98888.38;339619;29;1243;-71
2022/06/22 00:06:31;;;;;;;6.10;4.88;;;;;;;22.03;65.78;98887.56;340861;29;1310;-71
2022/06/22 00:07:02;;;;;;;8.10;5.07;;;;;;;22.02;66.14;98888.56;340680;29;1837;-71
2022/06/22 00:07:21;;;;;;;7.97;5.75;;;;;;;21.99;66.07;98887.00;341053;29;1945;-71
2022/06/22 00:07:37;;;;;;;9.60;6.07;;;;;;;21.97;65.91;98888.97;341066;28;1576;-71
2022/06/22 00:07:54;;;;;;;8.63;5.78;;;;;;;21.97;65.94;98888.13;340315;28;1183;-71
2022/06/22 00:08:12;;;;;;;9.60;5.43;;;;;;;21.96;65.90;98886.47;340216;29;1887;-71
2022/06/22 00:08:30;;;;;;;9.30;5.30;;;;;;;21.94;66.34;98884.78;339823;29;2311;-71
2022/06/22 00:08:46;;;;;;;7.82;5.40;;;;;;;21.94;66.30;98887.44;340868;28;1675;-71
2022/06/22 00:09:00;;;;;;;10.13;5.70;;;;;;;21.96;66.10;98891.78;340296;28;1879;-71
2022/06/22 00:09:50;;;;;;;10.23;5.60;;;;;;;21.97;66.10;98888.13;339816;29;1138;-71
2022/06/22 00:10:29;;;;;;;9.98;5.55;;;;;;;21.94;66.24;98887.44;339547;28;1187;-71
2022/06/22 00:10:47;;;;;;;10.30;5.60;;;;;;;21.97;66.13;98882.84;340649;29;1818;-71
2022/06/22 00:11:13;;;;;;;6.78;5.05;;;;;;;21.98;66.03;98895.09;340197;28;1233;-71
2022/06/22 00:11:26;;;;;;;7.22;5.53;;;;;;;21.96;65.96;98892.59;340144;29;2239;-71
2022/06/22 00:11:43;;;;;;;7.32;5.20;;;;;;;21.96;66.08;98891.78;340140;29;1787;-71
2022/06/22 00:11:57;;;;;;;8.35;5.45;;;;;;;21.95;66.44;98890.91;340895;29;2486;-71
2022/06/22 00:12:27;;;;;;;7.97;5.90;;;;;;;21.96;66.54;98894.41;340494;29;2420;-71
2022/06/22 00:12:40;;;;;;;11.85;6.20;;;;;;;21.95;66.29;98890.91;339699;28;1293;-71
2022/06/22 00:12:55;;;;;;;9.63;5.88;;;;;;;21.98;66.66;98892.47;341155;29;1034;-71
2022/06/22 00:13:16;;;;;;;9.52;5.90;;;;;;;21.98;66.30;98890.66;340851;29;1058;-71
2022/06/22 00:13:30;;;;;;;8.57;5.90;;;;;;;21.99;66.45;98889.66;339761;29;2530;-71
2022/06/22 00:13:51;;;;;;;8.00;5.97;;;;;;;21.99;66.67;98894.94;340797;28;1864;-71
2022/06/22 00:14:04;;;;;;;9.15;6.22;;;;;;;22.00;67.00;98893.16;340343;28;2408;-71
2022/06/22 00:14:18;;;;;;;8.40;6.10;;;;;;;22.00;66.33;98893.16;340894;28;1191;-71
2022/06/22 00:14:53;;;;;;;7.22;5.93;;;;;;;22.02;66.01;98896.50;340274;28;2599;-71
2022/06/22 00:15:41;;;;;;;9.70;5.57;;;;;;;22.05;65.90;98896.19;340268;28;2433;-71
2022/06/22 00:16:03;;;;;;;8.10;5.40;;;;;;;22.06;66.05;98897.88;339961;28;1227;-71
2022/06/22 00:16:34;;;;;;;8.98;5.43;;;;;;;22.04;65.98;98894.53;342394;28;1077;-71
2022/06/22 00:16:52;;;;;;;7.47;5.40;;;;;;;22.02;66.04;98894.69;341980;28;1032;-72
2022/06/22 00:17:04;;;;;;;7.57;5.40;;;;;;;22.01;65.66;98886.88;341385;28;2379;-71
2022/06/22 00:17:24;;;;;;;7.60;5.30;;;;;;;21.98;65.93;98893.28;340714;29;1027;-71
2022/06/22 00:17:38;;;;;;;8.13;5.45;;;;;;;21.98;65.62;98897.75;342047;28;1584;-71
2022/06/22 00:17:50;;;;;;;9.68;5.85;;;;;;;21.96;66.08;98899.72;342303;28;1295;-71
2022/06/22 00:18:21;;;;;;;9.55;6.05;;;;;;;21.89;66.28;98891.47;342075;28;1060;-71
2022/06/22 00:18:46;;;;;;;8.20;6.13;;;;;;;21.83;66.40;98898.19;340844;28;1536;-71
2022/06/22 00:18:59;;;;;;;8.07;6.32;;;;;;;21.82;66.37;98893.84;340858;29;1239;-71
2022/06/22 00:19:22;;;;;;;8.85;6.10;;;;;;;21.83;66.38;98897.34;340618;28;2228;-71
2022/06/22 00:19:40;;;;;;;8.95;5.80;;;;;;;21.83;66.51;98898.19;342016;28;1302;-71
2022/06/22 00:19:59;;;;;;;10.93;5.88;;;;;;;21.85;65.69;98901.53;340835;29;1157;-71
2022/06/22 00:20:13;;;;;;;10.43;5.50;;;;;;;21.86;66.01;98905.84;340930;28;2628;-71
2022/06/22 00:20:28;;;;;;;10.48;5.85;;;;;;;21.87;65.93;98904.88;341901;28;1474;-71
2022/06/22 00:20:40;;;;;;;9.07;5.60;;;;;;;21.90;66.00;98903.75;341202;28;2352;-71
2022/06/22 00:20:56;;;;;;;6.20;5.00;;;;;;;21.90;65.87;98904.56;340761;28;1119;-71
2022/06/22 00:21:29;;;;;;;5.97;5.00;;;;;;;21.91;66.11;98900.97;341259;28;1095;-71
2022/06/22 00:21:42;;;;;;;6.80;5.13;;;;;;;21.94;66.21;98908.59;340659;29;1892;-71
2022/06/22 00:21:54;;;;;;;7.40;5.25;;;;;;;21.96;66.28;98907.66;338901;28;1498;-71
2022/06/22 00:22:22;;;;;;;7.88;5.35;;;;;;;21.99;65.67;98907.34;341354;28;1631;-71
2022/06/22 00:22:53;;;;;;;8.90;5.30;;;;;;;22.02;65.87;98907.09;341557;28;1607;-71
2022/06/22 00:23:28;;;;;;;7.50;5.32;;;;;;;21.98;65.85;98903.03;342098;28;1818;-71
2022/06/22 00:23:42;;;;;;;9.77;5.90;;;;;;;21.96;65.64;98908.47;340700;28;1316;-71
2022/06/22 00:23:58;;;;;;;8.50;5.93;;;;;;;21.93;65.56;98911.38;341403;28;1587;-71
2022/06/22 00:24:22;;;;;;;8.40;5.78;;;;;;;21.96;64.91;98912.94;341110;28;1112;-71
2022/06/22 00:24:39;;;;;;;14.23;6.22;;;;;;;21.94;64.80;98913.91;340668;28;1581;-71
2022/06/22 00:24:58;;;;;;;12.55;5.80;;;;;;;21.97;65.31;98919.88;340714;28;1124;-71
2022/06/22 00:25:18;;;;;;;8.27;5.57;;;;;;;21.99;65.19;98910.00;340089;28;1707;-71
2022/06/22 00:25:30;;;;;;;9.38;5.50;;;;;;;22.00;65.10;98909.84;341252;28;1227;-71
2022/06/22 00:25:42;;;;;;;7.60;5.43;;;;;;;22.00;65.41;98909.03;341342;28;1269;-71
2022/06/22 00:26:06;;;;;;;8.68;5.60;;;;;;;22.00;65.06;98916.97;342385;28;1122;-71
2022/06/22 00:26:24;;;;;;;11.18;5.68;;;;;;;21.98;65.69;98911.00;342242;28;1087;-71
2022/06/22 00:26:45;;;;;;;9.38;5.60;;;;;;;21.97;65.04;98907.47;341847;28;1361;-72
2022/06/22 00:27:13;;;;;;;8.80;5.70;;;;;;;22.00;65.02;98909.03;340657;28;2012;-73
2022/06/22 00:27:37;;;;;;;6.88;5.53;;;;;;;22.04;65.21;98910.41;341100;28;2510;-72
2022/06/22 00:27:50;;;;;;;6.45;5.40;;;;;;;22.04;65.39;98915.72;341044;29;1079;-72
2022/06/22 00:28:50;;;;;;;7.10;5.43;;;;;;;22.04;65.53;98919.19;339935;29;1257;-72
2022/06/22 00:29:05;;;;;;;9.15;5.68;;;;;;;22.05;65.15;98914.72;339646;29;1301;-72
2022/06/22 00:29:20;;;;;;;7.07;5.75;;;;;;;22.05;64.67;98917.38;341061;28;1758;-72
2022/06/22 00:29:35;;;;;;;9.95;5.90;;;;;;;22.06;65.16;98913.75;340914;28;1180;-72
2022/06/22 00:30:07;;;;;;;9.98;5.43;;;;;;;22.06;64.75;98914.59;340981;28;1812;-72
2022/06/22 00:30:30;;;;;;;8.80;5.80;;;;;;;22.08;65.30;98922.41;341000;28;1087;-72
2022/06/22 00:30:46;;;;;;;9.00;5.57;;;;;;;22.09;65.05;98913.47;339931;29;1063;-72
2022/06/22 00:31:03;;;;;;;9.05;5.60;;;;;;;22.08;65.06;98911.81;340107;29;2083;-72
2022/06/22 00:31:21;;;;;;;8.63;5.65;;;;;;;22.09;65.57;98924.03;340711;28;1923;-72
2022/06/22 00:31:38;;;;;;;7.35;5.68;;;;;;;22.10;65.73;98920.44;340785;29;1174;-72
2022/06/22 00:31:50;;;;;;;8.82;5.93;;;;;;;22.10;65.19;98918.63;339929;29;1088;-72
2022/06/22 00:32:26;;;;;;;8.32;5.65;;;;;;;22.13;64.64;98922.78;339785;29;1217;-72
2022/06/22 00:32:53;;;;;;;9.20;5.40;;;;;;;22.08;64.26;98917.09;340477;28;1554;-72
2022/06/22 00:33:21;;;;;;;10.27;5.70;;;;;;;22.05;64.26;98912.91;340940;28;996;-72
2022/06/22 00:33:33;;;;;;;9.57;5.40;;;;;;;22.06;64.53;98929.63;340900;29;1293;-72
2022/06/22 00:34:05;;;;;;;6.80;5.28;;;;;;;22.05;64.78;98917.38;340872;28;1183;-72
2022/06/22 00:34:24;;;;;;;6.70;5.07;;;;;;;22.04;64.69;98918.34;341108;28;1014;-72
2022/06/22 00:34:36;;;;;;;6.85;4.90;;;;;;;22.03;64.54;98922.78;340549;28;1488;-72
2022/06/22 00:34:47;;;;;;;8.60;5.32;;;;;;;22.03;64.94;98919.31;339749;28;2120;-72
2022/06/22 00:35:35;;;;;;;8.07;5.57;;;;;;;22.00;65.02;98911.69;339680;29;1092;-72
2022/06/22 00:35:50;;;;;;;8.68;5.55;;;;;;;21.97;65.22;98914.59;339550;29;1996;-72
2022/06/22 00:36:02;;;;;;;8.88;5.32;;;;;;;21.97;65.16;98919.88;341284;29;1107;-72
2022/06/22 00:36:19;;;;;;;8.85;4.95;;;;;;;21.94;65.09;98916.53;342044;28;1051;-73
2022/06/22 00:36:39;;;;;;;7.15;4.85;;;;;;;21.93;64.92;98914.88;340948;28;2363;-72
2022/06/22 00:37:01;;;;;;;5.67;4.83;;;;;;;21.90;65.22;98914.31;341261;28;1698;-72
2022/06/22 00:37:42;;;;;;;6.25;4.80;;;;;;;21.89;64.94;98913.50;340749;28;2055;-72
2022/06/22 00:37:54;;;;;;;9.27;5.72;;;;;;;21.78;65.24;98918.94;337062;29;1109;-72
2022/06/22 00:38:09;;;;;;;8.60;5.90;;;;;;;21.76;65.24;98920.88;336804;29;1655;-72
2022/06/22 00:38:22;;;;;;;8.63;6.00;;;;;;;21.72;65.14;98920.31;339143;29;1615;-72
2022/06/22 00:38:34;;;;;;;8.52;5.90;;;;;;;21.71;65.11;98917.78;340746;29;1606;-72
2022/06/22 00:38:46;;;;;;;7.57;5.75;;;;;;;21.68;64.68;98918.09;341162;28;1176;-72
2022/06/22 00:39:17;;;;;;;8.15;5.80;;;;;;;21.64;64.71;98925.47;341285;28;1114;-72
2022/06/22 00:39:29;;;;;;;9.77;5.82;;;;;;;21.68;64.71;98915.44;340916;28;1132;-72
2022/06/22 00:39:45;;;;;;;7.60;5.60;;;;;;;21.63;65.07;98917.66;340822;29;1073;-72
2022/06/22 00:40:09;;;;;;;6.90;5.70;;;;;;;21.64;65.01;98914.06;340513;28;1779;-72
2022/06/22 00:40:21;;;;;;;7.30;5.70;;;;;;;21.64;65.20;98922.00;340638;28;1498;-72
2022/06/22 00:40:36;;;;;;;9.35;5.88;;;;;;;21.63;65.22;98912.38;340252;29;1321;-72
2022/06/22 00:40:55;;;;;;;11.27;5.97;;;;;;;21.61;65.31;98909.88;340078;29;2316;-72
2022/06/22 00:41:20;;;;;;;10.13;5.80;;;;;;;21.61;66.31;98904.59;340470;28;2522;-72
2022/06/22 00:41:33;;;;;;;7.07;5.43;;;;;;;21.63;65.64;98909.72;341895;28;1369;-72
2022/06/22 00:41:58;;;;;;;7.60;5.50;;;;;;;21.63;65.57;98912.38;340958;29;1228;-72
2022/06/22 00:42:18;;;;;;;8.30;5.97;;;;;;;21.62;66.04;98908.06;340979;29;1381;-72
2022/06/22 00:42:41;;;;;;;7.28;5.72;;;;;;;21.64;65.56;98911.41;340384;28;2425;-72
2022/06/22 00:42:53;;;;;;;7.35;5.88;;;;;;;21.64;65.77;98909.59;339500;29;1109;-72
2022/06/22 00:43:06;;;;;;;6.82;5.88;;;;;;;21.65;66.12;98907.78;339363;29;2089;-72
2022/06/22 00:43:19;;;;;;;7.18;5.88;;;;;;;21.63;66.18;98902.66;339665;29;1184;-72
2022/06/22 00:43:36;;;;;;;7.88;6.03;;;;;;;21.62;66.37;98905.44;339625;28;2248;-72
2022/06/22 00:43:49;;;;;;;6.82;5.90;;;;;;;21.62;66.42;98900.13;340572;29;1829;-72
2022/06/22 00:44:07;;;;;;;6.30;5.70;;;;;;;21.62;66.49;98897.50;341285;28;1095;-72
2022/06/22 00:44:20;;;;;;;7.63;6.00;;;;;;;21.61;66.49;98898.44;341132;28;1198;-72
2022/06/22 00:44:33;;;;;;;8.10;6.20;;;;;;;21.60;66.93;98899.44;339970;28;2293;-72
2022/06/22 00:44:46;;;;;;;6.80;6.00;;;;;;;21.62;66.75;98905.44;340987;28;1661;-72
2022/06/22 00:45:29;;;;;;;6.55;5.85;;;;;;;21.62;66.86;98900.97;341112;28;1051;-72
2022/06/22 00:45:45;;;;;;;8.35;5.63;;;;;;;21.63;66.80;98896.50;340389;29;1092;-72
2022/06/22 00:45:59;;;;;;;9.43;5.85;;;;;;;21.64;66.79;98899.00;339691;29;1018;-72
2022/06/22 00:46:18;;;;;;;7.18;5.97;;;;;;;21.63;66.48;98901.78;339487;29;1077;-72
2022/06/22 00:46:30;;;;;;;8.38;6.22;;;;;;;21.67;66.72;98897.88;339474;29;2566;-72
2022/06/22 00:47:04;;;;;;;8.10;6.18;;;;;;;21.64;66.85;98898.19;340621;29;1732;-72
2022/06/22 00:47:53;;;;;;;7.25;6.05;;;;;;;21.67;66.14;98893.47;339791;29;2411;-72
2022/06/22 00:48:14;;;;;;;8.63;5.90;;;;;;;21.69;66.17;98895.94;337755;29;1188;-72
2022/06/22 00:48:31;;;;;;;7.68;6.05;;;;;;;21.69;66.18;98890.66;340091;28;2171;-72
2022/06/22 00:48:46;;;;;;;9.02;5.80;;;;;;;21.70;66.05;98897.63;340028;29;1510;-72
2022/06/22 00:49:09;;;;;;;9.60;5.40;;;;;;;21.72;66.01;98888.56;341214;28;1115;-72
2022/06/22 00:49:23;;;;;;;10.00;5.60;;;;;;;21.72;66.33;98887.75;340315;28;1745;-72
2022/06/22 00:49:37;;;;;;;6.90;5.60;;;;;;;21.73;66.07;98887.59;340916;29;1240;-72
2022/06/22 00:49:49;;;;;;;6.97;5.38;;;;;;;21.76;65.97;98891.78;339757;29;1205;-72
2022/06/22 00:50:13;;;;;;;7.18;5.45;;;;;;;21.78;65.75;98887.19;340582;29;1459;-72
2022/06/22 00:50:29;;;;;;;8.75;5.68;;;;;;;21.80;65.40;98882.59;340249;28;2228;-72
2022/06/22 00:50:46;;;;;;;8.10;5.50;;;;;;;21.81;65.69;98886.06;340673;29;1757;-72
2022/06/22 00:51:06;;;;;;;6.50;5.45;;;;;;;21.84;65.63;98877.84;341098;28;2119;-72
2022/06/22 00:51:30;;;;;;;7.70;5.80;;;;;;;21.83;65.85;98879.66;341981;28;1522;-72
2022/06/22 00:51:42;;;;;;;7.82;5.80;;;;;;;21.82;65.42;98880.63;341463;28;1673;-72
2022/06/22 00:51:59;;;;;;;9.55;6.00;;;;;;;21.82;65.58;98883.28;339762;29;1201;-72
2022/06/22 00:52:24;;;;;;;10.95;5.95;;;;;;;21.83;65.23;98884.97;340314;29;2698;-72
2022/06/22 00:52:50;;;;;;;7.65;5.80;;;;;;;21.82;65.77;98880.63;340127;29;1691;-72
2022/06/22 00:53:04;;;;;;;8.15;6.00;;;;;;;21.81;65.86;98878.97;340923;29;1012;-72
2022/06/22 00:53:29;;;;;;;9.07;6.10;;;;;;;21.82;65.51;98874.50;340403;28;1231;-72
2022/06/22 00:53:54;;;;;;;8.43;6.10;;;;;;;21.80;65.80;98879.94;339764;29;1412;-72
2022/06/22 00:54:12;;;;;;;8.27;5.78;;;;;;;21.81;65.36;98881.63;339698;29;1179;-72
2022/06/22 00:54:29;;;;;;;7.68;5.97;;;;;;;21.82;65.41;98874.50;339773;28;1463;-72
2022/06/22 00:54:45;;;;;;;8.52;5.80;;;;;;;21.83;65.28;98876.16;340250;29;1763;-72
2022/06/22 00:54:57;;;;;;;9.80;5.75;;;;;;;21.82;65.50;98880.63;341030;28;1368;-72
2022/06/22 00:55:37;;;;;;;8.98;5.90;;;;;;;21.84;65.13;98876.03;341213;28;1323;-72
2022/06/22 00:55:53;;;;;;;7.85;5.78;;;;;;;21.85;65.29;98872.44;339559;29;1079;-72
2022/06/22 00:56:36;;;;;;;7.50;5.57;;;;;;;21.86;65.18;98871.44;339780;29;1202;-72
2022/06/22 00:56:53;;;;;;;9.23;5.80;;;;;;;21.84;65.32;98873.38;340617;29;1015;-72
2022/06/22 00:57:20;;;;;;;9.18;5.60;;;;;;;21.82;65.41;98872.69;341284;28;1259;-72
2022/06/22 00:57:36;;;;;;;7.30;5.28;;;;;;;21.85;65.01;98875.06;340017;28;2308;-72
2022/06/22 00:57:55;;;;;;;7.18;5.70;;;;;;;21.83;65.22;98866.44;340853;29;1088;-72
2022/06/22 00:58:07;;;;;;;7.38;5.78;;;;;;;21.84;65.06;98870.75;341074;28;1178;-72
2022/06/22 00:58:30;;;;;;;7.30;5.45;;;;;;;21.84;65.07;98867.28;341135;28;1040;-72
2022/06/22 00:59:18;;;;;;;7.00;5.50;;;;;;;21.84;65.10;98875.22;340644;29;1871;-72
2022/06/22 00:59:55;;;;;;;7.95;5.57;;;;;;;21.83;65.00;98866.44;339413;29;1161;-72
2022/06/22 01:00:16;;;;;;;8.13;5.35;;;;;;;21.82;65.21;98859.47;339889;29;2247;-72
2022/06/22 01:00:32;;;;;;;7.78;5.40;;;;;;;21.81;65.18;98872.81;340135;29;1224;-72
2022/06/22 01:00:58;;;;;;;7.30;5.60;;;;;;;21.78;65.37;98863.38;341066;28;1639;-72
2022/06/22 01:01:24;;;;;;;9.00;5.38;;;;;;;21.67;65.64;98863.50;341083;28;1136;-72
2022/06/22 01:01:49;;;;;;;8.65;6.20;;;;;;;21.56;65.94;98858.38;341106;28;1720;-72
2022/06/22 01:02:09;;;;;;;9.48;5.68;;;;;;;21.54;66.23;98861.97;339896;29;1064;-72
2022/06/22 01:02:32;;;;;;;8.35;5.88;;;;;;;21.48;66.47;98862.53;339861;29;1646;-72
2022/06/22 01:02:47;;;;;;;8.85;6.18;;;;;;;21.50;66.33;98860.59;339791;29;1285;-72
2022/06/22 01:03:13;;;;;;;8.50;5.82;;;;;;;21.44;66.67;98861.16;340284;29;1185;-72
2022/06/22 01:03:34;;;;;;;8.23;6.10;;;;;;;21.35;67.25;98864.59;340763;28;2351;-72
2022/06/22 01:04:09;;;;;;;9.70;6.30;;;;;;;21.37;67.25;98860.03;340748;28;1802;-72
2022/06/22 01:04:44;;;;;;;8.82;5.70;;;;;;;21.39;67.17;98858.06;341113;28;1004;-72
2022/06/22 01:05:10;;;;;;;7.40;5.30;;;;;;;21.41;66.91;98861.41;339581;28;2082;-72
2022/06/22 01:05:31;;;;;;;9.10;5.95;;;;;;;21.27;67.16;98861.78;339975;29;2130;-72
2022/06/22 01:05:55;;;;;;;9.82;6.80;;;;;;;21.27;67.32;98867.06;340575;29;1829;-72
2022/06/22 01:06:15;;;;;;;10.07;6.15;;;;;;;21.28;67.58;98855.53;340462;28;1899;-72
2022/06/22 01:06:37;;;;;;;7.50;5.65;;;;;;;21.30;67.40;98865.00;339560;29;2359;-72
2022/06/22 01:06:54;;;;;;;8.60;5.30;;;;;;;21.30;67.04;98856.25;339612;29;1079;-72
2022/06/22 01:07:15;;;;;;;8.30;5.95;;;;;;;21.25;67.35;98861.09;339828;29;1349;-72
2022/06/22 01:07:38;;;;;;;10.02;6.43;;;;;;;21.19;67.76;98862.50;339377;29;2299;-72
2022/06/22 01:08:10;;;;;;;9.73;6.53;;;;;;;21.12;67.87;98867.47;340491;28;1344;-72
2022/06/22 01:08:22;;;;;;;7.15;6.45;;;;;;;21.13;67.62;98863.06;340250;29;1567;-72
2022/06/22 01:08:52;;;;;;;7.78;6.45;;;;;;;21.12;67.46;98864.84;340259;28;1723;-72
2022/06/22 01:09:30;;;;;;;9.32;6.78;;;;;;;21.09;67.98;98867.75;341085;29;2248;-72
2022/06/22 01:09:51;;;;;;;12.30;6.90;;;;;;;21.06;68.00;98868.03;342064;28;1129;-72
2022/06/22 01:10:08;;;;;;;11.47;7.13;;;;;;;21.06;67.43;98868.03;341091;28;1630;-72
2022/06/22 01:10:47;;;;;;;10.38;7.03;;;;;;;21.08;67.35;98865.25;339817;29;1653;-72
2022/06/22 01:12:16;;;;;;;11.55;6.55;;;;;;;21.06;67.30;98870.66;340037;29;1190;-72
2022/06/22 01:12:18;;;;;;;9.00;6.60;;;;;;;21.05;67.44;98866.38;340984;29;1662;-72
2022/06/22 01:12:50;;;;;;;10.55;6.30;;;;;;;21.03;67.90;98868.31;340179;29;1232;-72
2022/06/22 01:13:16;;;;;;;8.88;6.57;;;;;;;21.06;67.75;98873.31;339870;29;1016;-72
2022/06/22 01:13:45;;;;;;;10.88;6.72;;;;;;;21.08;67.79;98871.38;338814;29;1815;-72
2022/06/22 01:14:03;;;;;;;8.57;6.57;;;;;;;21.11;67.72;98871.09;338960;29;1033;-71
2022/06/22 01:14:24;;;;;;;6.97;6.07;;;;;;;21.13;67.70;98874.44;339645;29;1064;-71
2022/06/22 01:14:43;;;;;;;7.03;5.82;;;;;;;21.15;67.88;98867.22;340557;29;1526;-72
2022/06/22 01:14:58;;;;;;;8.23;6.50;;;;;;;21.17;67.29;98866.22;339618;29;1539;-72
2022/06/22 01:15:40;;;;;;;7.70;6.35;;;;;;;21.19;67.37;98873.06;340355;28;2553;-72
2022/06/22 01:16:04;;;;;;;7.65;6.20;;;;;;;21.20;67.01;98874.72;338554;29;1167;-72
2022/06/22 01:16:23;;;;;;;11.23;6.30;;;;;;;21.21;67.14;98867.63;340011;28;1779;-72
2022/06/22 01:16:40;;;;;;;9.85;6.35;;;;;;;21.21;67.35;98875.56;340277;28;1434;-72
2022/06/22 01:16:57;;;;;;;8.65;6.22;;;;;;;21.21;67.33;98868.50;340913;28;1655;-72
2022/06/22 01:17:26;;;;;;;9.55;6.30;;;;;;;21.22;67.35;98862.22;340908;28;1296;-72
2022/06/22 01:17:48;;;;;;;9.82;6.32;;;;;;;21.24;67.37;98870.00;340728;28;1701;-72
2022/06/22 01:18:06;;;;;;;11.68;6.10;;;;;;;21.24;66.97;98872.66;339867;29;1223;-72
2022/06/22 01:18:20;;;;;;;8.85;5.97;;;;;;;21.24;66.67;98870.00;340163;29;1637;-72
2022/06/22 01:18:37;;;;;;;7.78;6.18;;;;;;;21.25;66.60;98867.25;340661;28;1457;-72
2022/06/22 01:19:05;;;;;;;7.38;6.43;;;;;;;21.27;66.54;98875.00;340244;28;1588;-72
2022/06/22 01:19:33;;;;;;;9.02;6.57;;;;;;;21.28;66.91;98871.41;339698;28;1963;-72
2022/06/22 01:19:58;;;;;;;9.43;6.57;;;;;;;21.27;67.09;98869.72;340234;28;2410;-72
2022/06/22 01:20:28;;;;;;;8.95;6.80;;;;;;;21.30;66.72;98880.03;340454;29;1811;-72
2022/06/22 01:21:02;;;;;;;9.32;6.57;;;;;;;21.29;66.94;98876.56;341092;28;1860;-72
2022/06/22 01:21:27;;;;;;;10.00;6.97;;;;;;;21.29;66.77;98875.72;340168;28;2682;-72
2022/06/22 01:21:44;;;;;;;8.80;6.85;;;;;;;21.27;66.92;98875.00;341072;28;1115;-72
2022/06/22 01:22:17;;;;;;;8.53;6.53;;;;;;;21.26;66.69;98878.63;339917;29;1771;-72
2022/06/22 01:22:48;;;;;;;10.05;6.25;;;;;;;21.29;66.59;98883.66;339798;28;1863;-72
2022/06/22 01:23:24;;;;;;;9.52;6.40;;;;;;;21.33;66.55;98879.78;339831;29;1072;-72
2022/06/22 01:23:53;;;;;;;8.15;6.00;;;;;;;21.38;66.25;98882.81;340576;28;1510;-72
2022/06/22 01:24:05;;;;;;;9.63;6.57;;;;;;;21.40;66.03;98880.06;339451;28;1120;-71
2022/06/22 01:24:21;;;;;;;8.00;6.50;;;;;;;21.40;66.52;98875.59;339627;29;1078;-72
2022/06/22 01:25:10;;;;;;;7.88;6.20;;;;;;;21.41;66.34;98887.00;340638;29;1264;-72
2022/06/22 01:25:27;;;;;;;8.73;6.32;;;;;;;21.38;66.38;98885.47;340948;28;1873;-71
2022/06/22 01:25:50;;;;;;;8.88;6.32;;;;;;;21.39;66.56;98884.50;340890;28;1673;-71
2022/06/22 01:26:21;;;;;;;8.13;6.32;;;;;;;21.40;66.84;98880.06;341082;28;1262;-71
2022/06/22 01:26:35;;;;;;;7.57;6.28;;;;;;;21.41;66.93;98874.63;340908;28;1137;-71
2022/06/22 01:27:24;;;;;;;10.02;6.57;;;;;;;21.40;67.00;98880.88;340354;28;1913;-71
2022/06/22 01:27:40;;;;;;;8.68;6.65;;;;;;;21.38;66.79;98876.72;339894;29;1055;-71
2022/06/22 01:27:53;;;;;;;9.02;6.47;;;;;;;21.37;66.80;98880.31;340974;28;1711;-71
2022/06/22 01:28:05;;;;;;;9.90;6.65;;;;;;;21.36;67.35;98879.47;341202;28;1563;-72
2022/06/22 01:28:18;;;;;;;8.32;6.50;;;;;;;21.35;67.29;98877.81;340651;28;2226;-72
2022/06/22 01:28:30;;;;;;;8.45;6.28;;;;;;;21.35;66.77;98880.47;340774;28;1263;-72
2022/06/22 01:28:51;;;;;;;10.73;6.30;;;;;;;21.35;66.92;98877.81;341032;28;1213;-72
2022/06/22 01:29:20;;;;;;;7.93;6.20;;;;;;;21.36;66.80;98879.47;341405;29;833;-72
2022/06/22 01:29:32;;;;;;;10.00;6.45;;;;;;;21.35;66.39;98883.13;340041;28;1698;-72
2022/06/22 01:29:51;;;;;;;11.23;6.55;;;;;;;21.33;66.52;98879.78;340233;28;1791;-72
2022/06/22 01:30:19;;;;;;;10.10;6.43;;;;;;;21.33;66.42;98879.78;340466;28;2004;-72
2022/06/22 01:30:38;;;;;;;9.05;6.10;;;;;;;21.34;66.67;98878.78;340247;28;1767;-72
2022/06/22 01:30:55;;;;;;;7.68;6.35;;;;;;;21.33;66.95;98887.72;341018;28;1586;-72
2022/06/22 01:31:13;;;;;;;8.07;6.70;;;;;;;21.33;67.23;98885.06;339754;29;1282;-72
2022/06/22 01:31:27;;;;;;;8.35;6.28;;;;;;;21.34;66.90;98881.44;339615;29;1298;-72
2022/06/22 01:31:49;;;;;;;8.30;6.10;;;;;;;21.36;67.16;98879.47;340825;28;1631;-72
2022/06/22 01:32:06;;;;;;;9.30;6.68;;;;;;;21.36;66.96;98882.13;339512;29;1134;-72
2022/06/22 01:32:32;;;;;;;11.27;6.60;;;;;;;21.36;67.25;98884.78;339341;29;1040;-72
2022/06/22 01:32:45;;;;;;;7.63;6.10;;;;;;;21.36;67.23;98879.47;339969;29;1957;-72
2022/06/22 01:32:57;;;;;;;8.13;6.30;;;;;;;21.36;67.05;98879.47;340869;29;1055;-72
2022/06/22 01:33:33;;;;;;;7.57;6.45;;;;;;;21.37;67.07;98882.94;339686;29;2235;-72
2022/06/22 01:33:50;;;;;;;7.53;6.43;;;;;;;21.38;66.68;98876.72;337849;29;1253;-72
2022/06/22 01:34:02;;;;;;;9.63;6.45;;;;;;;21.38;67.00;98876.72;338469;29;1844;-72
2022/06/22 01:34:16;;;;;;;9.60;6.50;;;;;;;21.37;66.68;98870.59;339746;29;1154;-72
2022/06/22 01:34:35;;;;;;;8.52;6.28;;;;;;;21.37;66.59;98875.88;338470;29;2023;-72
2022/06/22 01:34:48;;;;;;;8.52;6.13;;;;;;;21.38;66.66;98882.00;338302;29;1864;-72
2022/06/22 01:35:04;;;;;;;7.35;6.32;;;;;;;21.38;66.74;98872.25;340029;29;1503;-72
2022/06/22 01:35:25;;;;;;;7.43;6.07;;;;;;;21.39;66.78;98863.34;340713;29;1102;-72
2022/06/22 01:35:38;;;;;;;9.27;6.10;;;;;;;21.40;66.63;98870.31;340396;28;1642;-72
2022/06/22 01:35:56;;;;;;;8.63;6.40;;;;;;;21.40;66.53;98872.94;340203;29;1079;-72
2022/06/22 01:36:20;;;;;;;7.65;6.28;;;;;;;21.40;66.93;98872.94;341044;29;1208;-72
2022/06/22 01:36:33;;;;;;;9.05;6.32;;;;;;;21.42;66.60;98873.63;339781;28;1772;-72
2022/06/22 01:36:46;;;;;;;8.93;6.15;;;;;;;21.42;67.02;98873.63;340525;29;1869;-72
2022/06/22 01:37:03;;;;;;;9.05;6.20;;;;;;;21.43;66.86;98870.06;340882;28;1302;-72
2022/06/22 01:37:21;;;;;;;9.25;6.40;;;;;;;21.44;66.66;98870.91;340092;29;1706;-72
2022/06/22 01:37:33;;;;;;;7.70;6.57;;;;;;;21.42;66.48;98868.34;339845;29;1974;-72
2022/06/22 01:37:46;;;;;;;8.32;6.90;;;;;;;21.41;66.81;98869.34;340266;29;1765;-72
2022/06/22 01:37:58;;;;;;;7.72;6.90;;;;;;;21.40;66.71;98864.19;340909;29;1194;-72
2022/06/22 01:38:27;;;;;;;8.10;6.90;;;;;;;21.39;66.10;98867.78;340861;29;1732;-72
2022/06/22 01:38:40;;;;;;;9.40;6.40;;;;;;;21.42;66.06;98873.63;339503;28;1627;-72
2022/06/22 01:38:53;;;;;;;7.38;6.00;;;;;;;21.41;66.41;98866.69;340907;28;1907;-72
2022/06/22 01:39:05;;;;;;;7.63;6.00;;;;;;;21.42;66.19;98871.00;340917;29;1119;-72
2022/06/22 01:39:18;;;;;;;8.30;6.35;;;;;;;21.40;66.33;98867.66;339685;29;1071;-72
2022/06/22 01:39:30;;;;;;;10.30;6.78;;;;;;;21.40;66.00;98870.31;340318;29;1209;-72
2022/06/22 01:39:42;;;;;;;9.85;6.82;;;;;;;21.42;66.07;98872.81;340731;29;1117;-72
2022/06/22 01:40:24;;;;;;;8.95;6.43;;;;;;;21.39;66.65;98868.66;339747;29;1080;-72
2022/06/22 01:40:50;;;;;;;7.45;6.30;;;;;;;21.41;66.40;98871.97;338605;29;2601;-72
2022/06/22 01:41:14;;;;;;;9.27;6.90;;;;;;;21.41;66.71;98869.34;339756;29;1745;-72
2022/06/22 01:41:32;;;;;;;7.60;6.78;;;;;;;21.40;66.77;98870.31;339263;29;2139;-72
2022/06/22 01:41:53;;;;;;;7.20;6.50;;;;;;;21.39;66.98;98871.28;339784;29;1841;-73